Terminal Aerodrome Forecast
Issued by NWS

Home | Current Version | Previous Version | Text Only | Print | Product List | Glossary On
Versions: 1 2 3 4 5 6 7 8 9 10 11 12 13 14 15 16 17 18 19 20 21 22 23 24
213
FTUS44 KBMX 031735
TAFMGM
TAF
KMGM 031735Z 0318/0418 29007KT P6SM VCSH BKN035 OVC060
      TEMPO 0318/0320 BKN025
     FM032300 31007KT P6SM BKN050
     FM040400 31005KT P6SM OVC020
     FM041400 32008KT P6SM SCT025=

USA.gov is the U.S. government's official web portal to all federal, state and local government web resources and services.